sensor_id;sensor_type;location;lat;lon;timestamp;temperature;humidity
62259;DHT22;48241;48.824;10.102;2023-08-30T00:00:39;16.40;97.80
62259;DHT22;48241;48.824;10.102;2023-08-30T00:03:04;16.40;97.50
62259;DHT22;48241;48.824;10.102;2023-08-30T00:05:31;16.40;97.60
62259;DHT22;48241;48.824;10.102;2023-08-30T00:07:57;16.60;97.70
62259;DHT22;48241;48.824;10.102;2023-08-30T00:10:22;16.40;97.60
62259;DHT22;48241;48.824;10.102;2023-08-30T00:12:48;16.40;97.50
62259;DHT22;48241;48.824;10.102;2023-08-30T00:15:14;16.40;97.50
62259;DHT22;48241;48.824;10.102;2023-08-30T00:17:40;16.50;97.50
62259;DHT22;48241;48.824;10.102;2023-08-30T00:20:06;16.40;97.40
62259;DHT22;48241;48.824;10.102;2023-08-30T00:22:32;16.30;97.50
62259;DHT22;48241;48.824;10.102;2023-08-30T00:24:58;16.30;97.70
62259;DHT22;48241;48.824;10.102;2023-08-30T00:27:23;16.30;97.70
62259;DHT22;48241;48.824;10.102;2023-08-30T00:29:49;16.10;97.90
62259;DHT22;48241;48.824;10.102;2023-08-30T00:32:14;16.20;98.10
62259;DHT22;48241;48.824;10.102;2023-08-30T00:34:40;16.20;97.80
62259;DHT22;48241;48.824;10.102;2023-08-30T00:37:06;16.30;97.70
62259;DHT22;48241;48.824;10.102;2023-08-30T00:39:31;16.30;97.70
62259;DHT22;48241;48.824;10.102;2023-08-30T00:41:57;16.20;97.80
62259;DHT22;48241;48.824;10.102;2023-08-30T00:44:22;16.20;97.70
62259;DHT22;48241;48.824;10.102;2023-08-30T00:46:48;16.30;97.90
62259;DHT22;48241;48.824;10.102;2023-08-30T00:49:14;16.10;97.80
62259;DHT22;48241;48.824;10.102;2023-08-30T00:51:40;16.20;98.10
62259;DHT22;48241;48.824;10.102;2023-08-30T00:54:06;16.10;98.10
62259;DHT22;48241;48.824;10.102;2023-08-30T00:56:32;16.20;98.10
62259;DHT22;48241;48.824;10.102;2023-08-30T00:58:59;16.20;97.90
62259;DHT22;48241;48.824;10.102;2023-08-30T01:01:25;16.00;98.30
62259;DHT22;48241;48.824;10.102;2023-08-30T01:03:51;16.10;98.50
62259;DHT22;48241;48.824;10.102;2023-08-30T01:06:16;16.10;98.00
62259;DHT22;48241;48.824;10.102;2023-08-30T01:08:43;16.20;98.20
62259;DHT22;48241;48.824;10.102;2023-08-30T01:14:13;16.00;98.50
62259;DHT22;48241;48.824;10.102;2023-08-30T01:16:40;16.10;98.50
62259;DHT22;48241;48.824;10.102;2023-08-30T01:19:38;16.20;98.20
62259;DHT22;48241;48.824;10.102;2023-08-30T01:26:13;16.10;98.40
62259;DHT22;48241;48.824;10.102;2023-08-30T01:28:08;16.00;98.20
62259;DHT22;48241;48.824;10.102;2023-08-30T01:30:37;15.90;98.30
62259;DHT22;48241;48.824;10.102;2023-08-30T01:33:05;15.90;98.40
62259;DHT22;48241;48.824;10.102;2023-08-30T01:35:33;15.90;98.40
62259;DHT22;48241;48.824;10.102;2023-08-30T01:38:05;15.80;98.20
62259;DHT22;48241;48.824;10.102;2023-08-30T01:40:36;15.80;98.30
62259;DHT22;48241;48.824;10.102;2023-08-30T01:43:04;15.70;98.50
62259;DHT22;48241;48.824;10.102;2023-08-30T01:45:35;15.50;98.80
62259;DHT22;48241;48.824;10.102;2023-08-30T01:48:01;15.40;99.00
62259;DHT22;48241;48.824;10.102;2023-08-30T01:50:28;15.50;99.00
62259;DHT22;48241;48.824;10.102;2023-08-30T01:52:54;15.60;98.70
62259;DHT22;48241;48.824;10.102;2023-08-30T01:55:22;15.60;98.80
62259;DHT22;48241;48.824;10.102;2023-08-30T01:57:48;15.50;99.00
62259;DHT22;48241;48.824;10.102;2023-08-30T02:00:14;15.60;98.70
62259;DHT22;48241;48.824;10.102;2023-08-30T02:02:40;15.60;98.60
62259;DHT22;48241;48.824;10.102;2023-08-30T02:05:06;15.80;98.70
62259;DHT22;48241;48.824;10.102;2023-08-30T02:07:57;15.30;99.40
62259;DHT22;48241;48.824;10.102;2023-08-30T02:10:27;15.40;99.60
62259;DHT22;48241;48.824;10.102;2023-08-30T02:12:54;15.40;99.90
62259;DHT22;48241;48.824;10.102;2023-08-30T02:15:23;15.60;99.40
62259;DHT22;48241;48.824;10.102;2023-08-30T02:17:49;15.70;99.20
62259;DHT22;48241;48.824;10.102;2023-08-30T02:20:16;15.70;99.20
62259;DHT22;48241;48.824;10.102;2023-08-30T02:22:42;15.70;99.10
62259;DHT22;48241;48.824;10.102;2023-08-30T02:25:08;15.70;99.10
62259;DHT22;48241;48.824;10.102;2023-08-30T02:27:34;15.90;98.80
62259;DHT22;48241;48.824;10.102;2023-08-30T02:30:03;16.00;98.30
62259;DHT22;48241;48.824;10.102;2023-08-30T02:32:28;15.90;98.10
62259;DHT22;48241;48.824;10.102;2023-08-30T02:34:55;16.00;98.70
62259;DHT22;48241;48.824;10.102;2023-08-30T02:37:21;15.70;99.00
62259;DHT22;48241;48.824;10.102;2023-08-30T02:39:47;15.70;99.20
62259;DHT22;48241;48.824;10.102;2023-08-30T02:42:13;16.00;98.50
62259;DHT22;48241;48.824;10.102;2023-08-30T02:44:38;15.90;98.40
62259;DHT22;48241;48.824;10.102;2023-08-30T02:47:04;15.90;98.30
62259;DHT22;48241;48.824;10.102;2023-08-30T02:49:29;16.00;98.20
62259;DHT22;48241;48.824;10.102;2023-08-30T02:51:55;15.80;98.50
62259;DHT22;48241;48.824;10.102;2023-08-30T02:54:21;15.90;98.70
62259;DHT22;48241;48.824;10.102;2023-08-30T02:56:48;16.00;98.20
62259;DHT22;48241;48.824;10.102;2023-08-30T02:59:13;16.00;98.10
62259;DHT22;48241;48.824;10.102;2023-08-30T03:01:39;16.00;98.40
62259;DHT22;48241;48.824;10.102;2023-08-30T03:04:05;15.80;98.30
62259;DHT22;48241;48.824;10.102;2023-08-30T03:06:32;16.10;98.10
62259;DHT22;48241;48.824;10.102;2023-08-30T03:08:58;16.10;98.00
62259;DHT22;48241;48.824;10.102;2023-08-30T03:11:23;16.30;97.70
62259;DHT22;48241;48.824;10.102;2023-08-30T03:13:49;16.20;97.50
62259;DHT22;48241;48.824;10.102;2023-08-30T03:16:16;16.00;97.50
62259;DHT22;48241;48.824;10.102;2023-08-30T03:18:43;16.20;97.60
62259;DHT22;48241;48.824;10.102;2023-08-30T03:21:09;16.10;97.70
62259;DHT22;48241;48.824;10.102;2023-08-30T03:23:35;15.80;97.90
62259;DHT22;48241;48.824;10.102;2023-08-30T03:26:11;15.60;98.30
62259;DHT22;48241;48.824;10.102;2023-08-30T03:28:38;15.70;98.00
62259;DHT22;48241;48.824;10.102;2023-08-30T03:31:20;15.70;97.90
62259;DHT22;48241;48.824;10.102;2023-08-30T03:33:49;15.70;97.70
62259;DHT22;48241;48.824;10.102;2023-08-30T03:36:16;15.60;97.70
62259;DHT22;48241;48.824;10.102;2023-08-30T03:38:42;15.80;98.00
62259;DHT22;48241;48.824;10.102;2023-08-30T03:41:09;15.40;98.00
62259;DHT22;48241;48.824;10.102;2023-08-30T03:43:35;15.30;98.10
62259;DHT22;48241;48.824;10.102;2023-08-30T03:46:01;15.20;98.40
62259;DHT22;48241;48.824;10.102;2023-08-30T03:48:29;15.30;98.60
62259;DHT22;48241;48.824;10.102;2023-08-30T03:50:55;15.20;98.50
62259;DHT22;48241;48.824;10.102;2023-08-30T03:53:21;15.10;98.50
62259;DHT22;48241;48.824;10.102;2023-08-30T03:55:47;15.10;98.40
62259;DHT22;48241;48.824;10.102;2023-08-30T03:58:12;15.10;98.60
62259;DHT22;48241;48.824;10.102;2023-08-30T04:00:39;15.00;98.70
62259;DHT22;48241;48.824;10.102;2023-08-30T04:03:07;15.00;98.70
62259;DHT22;48241;48.824;10.102;2023-08-30T04:05:34;14.80;99.00
62259;DHT22;48241;48.824;10.102;2023-08-30T04:08:01;14.80;99.10
62259;DHT22;48241;48.824;10.102;2023-08-30T04:10:26;14.90;98.80
62259;DHT22;48241;48.824;10.102;2023-08-30T04:12:52;15.00;98.90
62259;DHT22;48241;48.824;10.102;2023-08-30T04:15:17;14.90;98.80
62259;DHT22;48241;48.824;10.102;2023-08-30T04:17:43;14.90;98.90
62259;DHT22;48241;48.824;10.102;2023-08-30T04:20:09;15.00;99.20
62259;DHT22;48241;48.824;10.102;2023-08-30T04:22:36;14.90;99.10
62259;DHT22;48241;48.824;10.102;2023-08-30T04:25:02;14.90;99.00
62259;DHT22;48241;48.824;10.102;2023-08-30T04:27:28;14.90;99.20
62259;DHT22;48241;48.824;10.102;2023-08-30T04:29:53;14.80;99.10
62259;DHT22;48241;48.824;10.102;2023-08-30T04:32:19;14.80;99.00
62259;DHT22;48241;48.824;10.102;2023-08-30T04:34:45;14.70;99.10
62259;DHT22;48241;48.824;10.102;2023-08-30T04:37:10;14.60;99.00
62259;DHT22;48241;48.824;10.102;2023-08-30T04:39:36;14.70;99.20
62259;DHT22;48241;48.824;10.102;2023-08-30T04:42:01;14.60;99.40
62259;DHT22;48241;48.824;10.102;2023-08-30T04:44:28;14.60;99.30
62259;DHT22;48241;48.824;10.102;2023-08-30T04:46:54;14.90;99.50
62259;DHT22;48241;48.824;10.102;2023-08-30T04:49:20;15.00;99.60
62259;DHT22;48241;48.824;10.102;2023-08-30T04:51:46;14.70;99.30
62259;DHT22;48241;48.824;10.102;2023-08-30T04:54:12;14.50;99.80
62259;DHT22;48241;48.824;10.102;2023-08-30T04:56:38;14.70;99.70
62259;DHT22;48241;48.824;10.102;2023-08-30T04:59:03;14.80;99.50
62259;DHT22;48241;48.824;10.102;2023-08-30T05:01:32;15.00;99.40
62259;DHT22;48241;48.824;10.102;2023-08-30T05:03:58;15.10;99.30
62259;DHT22;48241;48.824;10.102;2023-08-30T05:06:23;14.90;99.60
62259;DHT22;48241;48.824;10.102;2023-08-30T05:08:49;15.30;99.30
62259;DHT22;48241;48.824;10.102;2023-08-30T05:11:14;15.20;99.20
62259;DHT22;48241;48.824;10.102;2023-08-30T05:13:41;15.40;99.40
62259;DHT22;48241;48.824;10.102;2023-08-30T05:16:06;15.90;99.20
62259;DHT22;48241;48.824;10.102;2023-08-30T05:18:32;15.70;98.90
62259;DHT22;48241;48.824;10.102;2023-08-30T05:20:57;15.70;98.90
62259;DHT22;48241;48.824;10.102;2023-08-30T05:23:23;15.90;98.60
62259;DHT22;48241;48.824;10.102;2023-08-30T05:25:48;16.10;98.60
62259;DHT22;48241;48.824;10.102;2023-08-30T05:28:14;16.20;98.60
62259;DHT22;48241;48.824;10.102;2023-08-30T05:30:42;16.10;98.90
62259;DHT22;48241;48.824;10.102;2023-08-30T05:33:09;16.40;98.50
62259;DHT22;48241;48.824;10.102;2023-08-30T05:35:34;16.70;98.00
62259;DHT22;48241;48.824;10.102;2023-08-30T05:38:00;16.70;97.50
62259;DHT22;48241;48.824;10.102;2023-08-30T05:40:26;16.90;97.00
62259;DHT22;48241;48.824;10.102;2023-08-30T05:42:51;16.70;97.80
62259;DHT22;48241;48.824;10.102;2023-08-30T05:45:17;16.80;97.70
62259;DHT22;48241;48.824;10.102;2023-08-30T05:47:42;16.70;97.90
62259;DHT22;48241;48.824;10.102;2023-08-30T05:50:08;16.90;97.80
62259;DHT22;48241;48.824;10.102;2023-08-30T05:52:34;17.00;97.00
62259;DHT22;48241;48.824;10.102;2023-08-30T05:54:59;17.20;96.40
62259;DHT22;48241;48.824;10.102;2023-08-30T05:57:25;17.20;96.50
62259;DHT22;48241;48.824;10.102;2023-08-30T05:59:52;17.30;96.80
62259;DHT22;48241;48.824;10.102;2023-08-30T06:02:17;17.40;96.50
62259;DHT22;48241;48.824;10.102;2023-08-30T06:04:46;17.60;96.40
62259;DHT22;48241;48.824;10.102;2023-08-30T06:07:11;17.90;96.00
62259;DHT22;48241;48.824;10.102;2023-08-30T06:09:40;18.20;94.90
62259;DHT22;48241;48.824;10.102;2023-08-30T06:12:08;18.70;94.60
62259;DHT22;48241;48.824;10.102;2023-08-30T06:14:34;19.00;93.90
62259;DHT22;48241;48.824;10.102;2023-08-30T06:17:00;19.60;93.00
62259;DHT22;48241;48.824;10.102;2023-08-30T06:19:28;19.70;92.30
62259;DHT22;48241;48.824;10.102;2023-08-30T06:22:00;19.80;91.40
62259;DHT22;48241;48.824;10.102;2023-08-30T06:24:25;20.50;90.10
62259;DHT22;48241;48.824;10.102;2023-08-30T06:26:51;20.20;89.00
62259;DHT22;48241;48.824;10.102;2023-08-30T06:29:16;20.50;88.30
62259;DHT22;48241;48.824;10.102;2023-08-30T06:31:42;20.50;88.60
62259;DHT22;48241;48.824;10.102;2023-08-30T06:34:08;20.50;88.30
62259;DHT22;48241;48.824;10.102;2023-08-30T06:36:33;20.30;88.40
62259;DHT22;48241;48.824;10.102;2023-08-30T06:38:59;20.50;88.70
62259;DHT22;48241;48.824;10.102;2023-08-30T06:41:24;20.70;87.20
62259;DHT22;48241;48.824;10.102;2023-08-30T06:43:50;20.80;86.30
62259;DHT22;48241;48.824;10.102;2023-08-30T06:46:15;21.00;85.10
62259;DHT22;48241;48.824;10.102;2023-08-30T06:48:41;21.10;81.80
62259;DHT22;48241;48.824;10.102;2023-08-30T06:51:06;21.40;82.90
62259;DHT22;48241;48.824;10.102;2023-08-30T06:53:34;21.40;81.10
62259;DHT22;48241;48.824;10.102;2023-08-30T06:56:01;21.20;80.20
62259;DHT22;48241;48.824;10.102;2023-08-30T06:58:27;21.30;81.80
62259;DHT22;48241;48.824;10.102;2023-08-30T07:00:53;21.40;80.90
62259;DHT22;48241;48.824;10.102;2023-08-30T07:03:19;21.40;79.50
62259;DHT22;48241;48.824;10.102;2023-08-30T07:05:45;21.50;79.80
62259;DHT22;48241;48.824;10.102;2023-08-30T07:08:21;21.40;80.70
62259;DHT22;48241;48.824;10.102;2023-08-30T07:10:53;21.40;79.90
62259;DHT22;48241;48.824;10.102;2023-08-30T07:13:19;21.60;79.50
62259;DHT22;48241;48.824;10.102;2023-08-30T07:15:44;21.70;80.70
62259;DHT22;48241;48.824;10.102;2023-08-30T07:18:13;21.40;80.00
62259;DHT22;48241;48.824;10.102;2023-08-30T07:20:39;21.50;78.90
62259;DHT22;48241;48.824;10.102;2023-08-30T07:23:04;21.60;77.50
62259;DHT22;48241;48.824;10.102;2023-08-30T07:25:33;21.80;77.90
62259;DHT22;48241;48.824;10.102;2023-08-30T07:28:08;22.00;77.20
62259;DHT22;48241;48.824;10.102;2023-08-30T07:30:34;22.30;77.00
62259;DHT22;48241;48.824;10.102;2023-08-30T07:33:08;22.40;75.10
62259;DHT22;48241;48.824;10.102;2023-08-30T07:35:43;22.70;78.20
62259;DHT22;48241;48.824;10.102;2023-08-30T07:38:15;23.10;77.00
62259;DHT22;48241;48.824;10.102;2023-08-30T07:40:40;23.50;74.80
62259;DHT22;48241;48.824;10.102;2023-08-30T07:43:15;23.80;73.30
62259;DHT22;48241;48.824;10.102;2023-08-30T07:45:40;24.60;70.00
62259;DHT22;48241;48.824;10.102;2023-08-30T07:48:09;25.10;68.90
62259;DHT22;48241;48.824;10.102;2023-08-30T07:50:38;25.50;68.10
62259;DHT22;48241;48.824;10.102;2023-08-30T07:53:03;25.90;66.00
62259;DHT22;48241;48.824;10.102;2023-08-30T07:55:38;26.20;64.40
62259;DHT22;48241;48.824;10.102;2023-08-30T07:58:04;26.50;65.10
62259;DHT22;48241;48.824;10.102;2023-08-30T08:00:30;26.60;61.90
62259;DHT22;48241;48.824;10.102;2023-08-30T08:02:55;25.80;62.40
62259;DHT22;48241;48.824;10.102;2023-08-30T08:05:30;25.40;61.60
62259;DHT22;48241;48.824;10.102;2023-08-30T08:08:00;25.60;63.50
62259;DHT22;48241;48.824;10.102;2023-08-30T08:10:27;25.60;63.70
62259;DHT22;48241;48.824;10.102;2023-08-30T08:15:24;25.90;61.20
62259;DHT22;48241;48.824;10.102;2023-08-30T08:17:49;26.30;60.20
62259;DHT22;48241;48.824;10.102;2023-08-30T08:20:15;26.20;60.70
62259;DHT22;48241;48.824;10.102;2023-08-30T08:22:41;26.10;61.60
62259;DHT22;48241;48.824;10.102;2023-08-30T08:25:06;25.80;61.60
62259;DHT22;48241;48.824;10.102;2023-08-30T08:27:38;26.10;62.60
62259;DHT22;48241;48.824;10.102;2023-08-30T08:30:04;26.30;63.20
62259;DHT22;48241;48.824;10.102;2023-08-30T08:32:30;26.90;61.50
62259;DHT22;48241;48.824;10.102;2023-08-30T08:34:57;27.00;61.50
62259;DHT22;48241;48.824;10.102;2023-08-30T08:37:22;27.10;59.70
62259;DHT22;48241;48.824;10.102;2023-08-30T08:39:48;27.20;59.10
62259;DHT22;48241;48.824;10.102;2023-08-30T08:42:17;26.60;59.10
62259;DHT22;48241;48.824;10.102;2023-08-30T08:44:43;26.30;59.90
62259;DHT22;48241;48.824;10.102;2023-08-30T08:47:17;26.00;60.80
62259;DHT22;48241;48.824;10.102;2023-08-30T08:49:50;26.20;60.80
62259;DHT22;48241;48.824;10.102;2023-08-30T08:52:16;26.30;61.60
62259;DHT22;48241;48.824;10.102;2023-08-30T08:54:43;26.00;61.40
62259;DHT22;48241;48.824;10.102;2023-08-30T08:57:14;25.70;61.50
62259;DHT22;48241;48.824;10.102;2023-08-30T08:59:43;25.50;62.50
62259;DHT22;48241;48.824;10.102;2023-08-30T09:02:14;25.20;63.20
62259;DHT22;48241;48.824;10.102;2023-08-30T09:04:40;24.60;64.60
62259;DHT22;48241;48.824;10.102;2023-08-30T09:07:09;24.40;64.90
62259;DHT22;48241;48.824;10.102;2023-08-30T09:09:37;24.50;67.00
62259;DHT22;48241;48.824;10.102;2023-08-30T09:12:03;24.10;66.10
62259;DHT22;48241;48.824;10.102;2023-08-30T09:14:29;24.50;67.60
62259;DHT22;48241;48.824;10.102;2023-08-30T09:16:59;24.80;67.80
62259;DHT22;48241;48.824;10.102;2023-08-30T09:19:27;25.50;66.40
62259;DHT22;48241;48.824;10.102;2023-08-30T09:22:02;25.60;64.70
62259;DHT22;48241;48.824;10.102;2023-08-30T09:24:40;26.00;63.00
62259;DHT22;48241;48.824;10.102;2023-08-30T09:27:06;26.50;63.50
62259;DHT22;48241;48.824;10.102;2023-08-30T09:29:32;26.60;62.90
62259;DHT22;48241;48.824;10.102;2023-08-30T09:31:58;26.70;60.20
62259;DHT22;48241;48.824;10.102;2023-08-30T09:34:27;26.90;60.90
62259;DHT22;48241;48.824;10.102;2023-08-30T09:36:53;27.40;60.70
62259;DHT22;48241;48.824;10.102;2023-08-30T09:39:33;27.70;61.80
62259;DHT22;48241;48.824;10.102;2023-08-30T09:42:00;28.00;59.10
62259;DHT22;48241;48.824;10.102;2023-08-30T09:44:30;28.10;58.20
62259;DHT22;48241;48.824;10.102;2023-08-30T09:46:56;28.20;57.00
62259;DHT22;48241;48.824;10.102;2023-08-30T09:49:33;27.90;56.70
62259;DHT22;48241;48.824;10.102;2023-08-30T09:52:03;27.00;59.40
62259;DHT22;48241;48.824;10.102;2023-08-30T09:54:32;27.70;59.20
62259;DHT22;48241;48.824;10.102;2023-08-30T09:57:06;28.00;56.80
62259;DHT22;48241;48.824;10.102;2023-08-30T09:59:36;28.60;57.30
62259;DHT22;48241;48.824;10.102;2023-08-30T10:02:09;29.10;56.40
62259;DHT22;48241;48.824;10.102;2023-08-30T10:04:38;29.40;56.40
62259;DHT22;48241;48.824;10.102;2023-08-30T10:07:09;29.30;53.80
62259;DHT22;48241;48.824;10.102;2023-08-30T10:09:38;29.10;54.70
62259;DHT22;48241;48.824;10.102;2023-08-30T10:12:10;29.30;53.50
62259;DHT22;48241;48.824;10.102;2023-08-30T10:14:36;29.20;54.00
62259;DHT22;48241;48.824;10.102;2023-08-30T10:17:05;29.00;54.80
62259;DHT22;48241;48.824;10.102;2023-08-30T10:19:32;28.60;54.80
62259;DHT22;48241;48.824;10.102;2023-08-30T10:22:03;28.30;54.60
62259;DHT22;48241;48.824;10.102;2023-08-30T10:24:34;28.00;55.80
62259;DHT22;48241;48.824;10.102;2023-08-30T10:27:04;27.50;58.00
62259;DHT22;48241;48.824;10.102;2023-08-30T10:29:33;27.30;56.10
62259;DHT22;48241;48.824;10.102;2023-08-30T10:32:03;27.10;58.10
62259;DHT22;48241;48.824;10.102;2023-08-30T10:34:32;26.90;58.30
62259;DHT22;48241;48.824;10.102;2023-08-30T10:36:59;26.90;57.90
62259;DHT22;48241;48.824;10.102;2023-08-30T10:39:42;26.90;58.00
62259;DHT22;48241;48.824;10.102;2023-08-30T10:42:15;26.60;60.20
62259;DHT22;48241;48.824;10.102;2023-08-30T10:47:55;27.10;59.90
62259;DHT22;48241;48.824;10.102;2023-08-30T10:50:29;26.40;59.80
62259;DHT22;48241;48.824;10.102;2023-08-30T10:52:55;26.50;61.10
62259;DHT22;48241;48.824;10.102;2023-08-30T10:55:34;26.60;60.10
62259;DHT22;48241;48.824;10.102;2023-08-30T10:58:02;26.30;61.50
62259;DHT22;48241;48.824;10.102;2023-08-30T11:00:29;26.70;60.40
62259;DHT22;48241;48.824;10.102;2023-08-30T11:02:55;27.30;59.20
62259;DHT22;48241;48.824;10.102;2023-08-30T11:05:25;26.80;58.20
62259;DHT22;48241;48.824;10.102;2023-08-30T11:07:51;27.10;57.40
62259;DHT22;48241;48.824;10.102;2023-08-30T11:10:18;27.60;56.70
62259;DHT22;48241;48.824;10.102;2023-08-30T11:12:44;27.70;57.80
62259;DHT22;48241;48.824;10.102;2023-08-30T11:15:11;27.90;56.00
62259;DHT22;48241;48.824;10.102;2023-08-30T11:17:39;27.90;54.60
62259;DHT22;48241;48.824;10.102;2023-08-30T11:20:10;27.70;56.20
62259;DHT22;48241;48.824;10.102;2023-08-30T11:22:41;27.40;55.70
62259;DHT22;48241;48.824;10.102;2023-08-30T11:25:12;27.60;56.40
62259;DHT22;48241;48.824;10.102;2023-08-30T11:27:38;27.10;53.70
62259;DHT22;48241;48.824;10.102;2023-08-30T11:30:14;26.70;57.00
62259;DHT22;48241;48.824;10.102;2023-08-30T11:32:48;26.80;56.90
62259;DHT22;48241;48.824;10.102;2023-08-30T11:35:14;27.20;57.50
62259;DHT22;48241;48.824;10.102;2023-08-30T11:37:41;27.20;56.80
62259;DHT22;48241;48.824;10.102;2023-08-30T11:40:14;27.20;56.40
62259;DHT22;48241;48.824;10.102;2023-08-30T11:42:41;27.40;58.40
62259;DHT22;48241;48.824;10.102;2023-08-30T11:45:14;27.30;55.60
62259;DHT22;48241;48.824;10.102;2023-08-30T11:47:43;26.80;58.00
62259;DHT22;48241;48.824;10.102;2023-08-30T11:50:15;26.70;59.00
62259;DHT22;48241;48.824;10.102;2023-08-30T11:52:41;26.70;58.20
62259;DHT22;48241;48.824;10.102;2023-08-30T11:55:07;26.60;57.60
62259;DHT22;48241;48.824;10.102;2023-08-30T11:57:33;26.30;58.40
62259;DHT22;48241;48.824;10.102;2023-08-30T12:00:10;26.50;59.10
62259;DHT22;48241;48.824;10.102;2023-08-30T12:02:40;26.20;59.10
62259;DHT22;48241;48.824;10.102;2023-08-30T12:05:15;26.20;58.00
62259;DHT22;48241;48.824;10.102;2023-08-30T12:07:41;26.30;56.90
62259;DHT22;48241;48.824;10.102;2023-08-30T12:10:08;26.20;57.90
62259;DHT22;48241;48.824;10.102;2023-08-30T12:12:34;25.60;57.20
62259;DHT22;48241;48.824;10.102;2023-08-30T12:15:12;25.50;60.10
62259;DHT22;48241;48.824;10.102;2023-08-30T12:17:45;25.00;58.60
62259;DHT22;48241;48.824;10.102;2023-08-30T12:20:17;25.00;60.70
62259;DHT22;48241;48.824;10.102;2023-08-30T12:22:45;25.10;60.50
62259;DHT22;48241;48.824;10.102;2023-08-30T12:25:22;25.00;60.90
62259;DHT22;48241;48.824;10.102;2023-08-30T12:28:02;25.20;59.30
62259;DHT22;48241;48.824;10.102;2023-08-30T12:30:32;25.10;58.20
62259;DHT22;48241;48.824;10.102;2023-08-30T12:33:01;25.30;59.30
62259;DHT22;48241;48.824;10.102;2023-08-30T12:35:28;25.20;60.40
62259;DHT22;48241;48.824;10.102;2023-08-30T12:37:54;25.30;59.20
62259;DHT22;48241;48.824;10.102;2023-08-30T12:40:20;25.30;58.80
62259;DHT22;48241;48.824;10.102;2023-08-30T12:42:46;24.80;58.40
62259;DHT22;48241;48.824;10.102;2023-08-30T12:45:11;24.80;57.70
62259;DHT22;48241;48.824;10.102;2023-08-30T12:47:37;24.70;60.10
62259;DHT22;48241;48.824;10.102;2023-08-30T12:50:03;25.00;60.80
62259;DHT22;48241;48.824;10.102;2023-08-30T12:52:29;25.00;57.60
62259;DHT22;48241;48.824;10.102;2023-08-30T12:54:54;24.90;60.90
62259;DHT22;48241;48.824;10.102;2023-08-30T12:57:20;25.10;60.00
62259;DHT22;48241;48.824;10.102;2023-08-30T12:59:45;24.90;60.60
62259;DHT22;48241;48.824;10.102;2023-08-30T13:02:11;25.00;59.60
62259;DHT22;48241;48.824;10.102;2023-08-30T13:04:36;25.00;61.30
62259;DHT22;48241;48.824;10.102;2023-08-30T13:07:03;25.10;60.90
62259;DHT22;48241;48.824;10.102;2023-08-30T13:09:28;25.30;61.00
62259;DHT22;48241;48.824;10.102;2023-08-30T13:11:54;25.30;59.60
62259;DHT22;48241;48.824;10.102;2023-08-30T13:14:19;25.40;60.20
62259;DHT22;48241;48.824;10.102;2023-08-30T13:16:45;25.50;59.30
62259;DHT22;48241;48.824;10.102;2023-08-30T13:19:10;25.60;56.60
62259;DHT22;48241;48.824;10.102;2023-08-30T13:21:36;25.60;56.70
62259;DHT22;48241;48.824;10.102;2023-08-30T13:24:02;25.50;57.00
62259;DHT22;48241;48.824;10.102;2023-08-30T13:26:28;25.10;57.70
62259;DHT22;48241;48.824;10.102;2023-08-30T13:28:53;25.00;58.40
62259;DHT22;48241;48.824;10.102;2023-08-30T13:31:19;25.10;58.30
62259;DHT22;48241;48.824;10.102;2023-08-30T13:33:44;25.10;58.50
62259;DHT22;48241;48.824;10.102;2023-08-30T13:36:10;25.10;56.40
62259;DHT22;48241;48.824;10.102;2023-08-30T13:38:36;25.40;57.80
62259;DHT22;48241;48.824;10.102;2023-08-30T13:41:01;25.40;57.70
62259;DHT22;48241;48.824;10.102;2023-08-30T13:43:29;25.20;56.00
62259;DHT22;48241;48.824;10.102;2023-08-30T13:45:59;25.20;57.60
62259;DHT22;48241;48.824;10.102;2023-08-30T13:48:25;24.60;57.60
62259;DHT22;48241;48.824;10.102;2023-08-30T13:50:51;24.80;59.30
62259;DHT22;48241;48.824;10.102;2023-08-30T13:53:16;25.00;57.10
62259;DHT22;48241;48.824;10.102;2023-08-30T13:55:46;25.10;58.40
62259;DHT22;48241;48.824;10.102;2023-08-30T13:58:14;25.10;57.10
62259;DHT22;48241;48.824;10.102;2023-08-30T14:00:40;25.00;56.20
62259;DHT22;48241;48.824;10.102;2023-08-30T14:03:05;25.00;59.70
62259;DHT22;48241;48.824;10.102;2023-08-30T14:05:31;25.00;57.40
62259;DHT22;48241;48.824;10.102;2023-08-30T14:07:57;25.00;57.90
62259;DHT22;48241;48.824;10.102;2023-08-30T14:10:22;24.80;59.10
62259;DHT22;48241;48.824;10.102;2023-08-30T14:12:48;24.80;60.30
62259;DHT22;48241;48.824;10.102;2023-08-30T14:15:13;24.70;60.50
62259;DHT22;48241;48.824;10.102;2023-08-30T14:17:39;24.70;61.10
62259;DHT22;48241;48.824;10.102;2023-08-30T14:20:05;24.30;59.60
62259;DHT22;48241;48.824;10.102;2023-08-30T14:22:32;24.30;60.20
62259;DHT22;48241;48.824;10.102;2023-08-30T14:24:57;24.30;62.50
62259;DHT22;48241;48.824;10.102;2023-08-30T14:27:23;24.40;61.70
62259;DHT22;48241;48.824;10.102;2023-08-30T14:29:49;24.30;62.90
62259;DHT22;48241;48.824;10.102;2023-08-30T14:32:14;24.30;69.40
62259;DHT22;48241;48.824;10.102;2023-08-30T14:34:40;24.10;61.20
62259;DHT22;48241;48.824;10.102;2023-08-30T14:37:05;24.10;63.20
62259;DHT22;48241;48.824;10.102;2023-08-30T14:39:31;24.10;66.40
62259;DHT22;48241;48.824;10.102;2023-08-30T14:41:56;24.30;64.30
62259;DHT22;48241;48.824;10.102;2023-08-30T14:44:22;24.10;62.20
62259;DHT22;48241;48.824;10.102;2023-08-30T14:46:51;24.30;65.60
62259;DHT22;48241;48.824;10.102;2023-08-30T14:49:16;24.20;67.30
62259;DHT22;48241;48.824;10.102;2023-08-30T14:51:42;24.20;66.40
62259;DHT22;48241;48.824;10.102;2023-08-30T14:54:08;24.30;63.50
62259;DHT22;48241;48.824;10.102;2023-08-30T14:56:33;24.30;66.00
62259;DHT22;48241;48.824;10.102;2023-08-30T14:58:59;24.60;64.20
62259;DHT22;48241;48.824;10.102;2023-08-30T15:01:24;24.10;65.20
62259;DHT22;48241;48.824;10.102;2023-08-30T15:03:50;23.90;63.50
62259;DHT22;48241;48.824;10.102;2023-08-30T15:06:15;24.20;64.10
62259;DHT22;48241;48.824;10.102;2023-08-30T15:08:41;24.40;62.70
62259;DHT22;48241;48.824;10.102;2023-08-30T15:11:08;24.30;61.30
62259;DHT22;48241;48.824;10.102;2023-08-30T15:13:34;24.10;58.40
62259;DHT22;48241;48.824;10.102;2023-08-30T15:16:00;24.10;58.90
62259;DHT22;48241;48.824;10.102;2023-08-30T15:18:26;24.30;59.70
62259;DHT22;48241;48.824;10.102;2023-08-30T15:20:52;24.10;61.60
62259;DHT22;48241;48.824;10.102;2023-08-30T15:23:18;24.30;60.90
62259;DHT22;48241;48.824;10.102;2023-08-30T15:25:45;24.20;62.40
62259;DHT22;48241;48.824;10.102;2023-08-30T15:28:15;24.00;62.40